sensor_id;sensor_type;location;lat;lon;timestamp;P1;durP1;ratioP1;P2;durP2;ratioP2
16760;SDS011;8498;52.516;13.790;2022-07-23T00:00:22;6.57;;;5.45;;
16760;SDS011;8498;52.516;13.790;2022-07-23T00:05:45;10.07;;;7.43;;
16760;SDS011;8498;52.516;13.790;2022-07-23T00:11:07;11.18;;;7.55;;
16760;SDS011;8498;52.516;13.790;2022-07-23T00:16:30;11.77;;;7.97;;
16760;SDS011;8498;52.516;13.790;2022-07-23T00:21:52;10.25;;;7.93;;
16760;SDS011;8498;52.516;13.790;2022-07-23T00:27:15;11.35;;;8.52;;
16760;SDS011;8498;52.516;13.790;2022-07-23T00:38:18;10.70;;;8.03;;
16760;SDS011;8498;52.516;13.790;2022-07-23T00:43:41;11.50;;;8.13;;
16760;SDS011;8498;52.516;13.790;2022-07-23T00:49:03;8.23;;;6.60;;
16760;SDS011;8498;52.516;13.790;2022-07-23T00:54:27;7.60;;;6.20;;
16760;SDS011;8498;52.516;13.790;2022-07-23T00:59:50;6.67;;;5.73;;
16760;SDS011;8498;52.516;13.790;2022-07-23T01:05:12;7.43;;;5.75;;
16760;SDS011;8498;52.516;13.790;2022-07-23T01:10:37;9.37;;;6.17;;
16760;SDS011;8498;52.516;13.790;2022-07-23T01:16:00;8.53;;;5.93;;
16760;SDS011;8498;52.516;13.790;2022-07-23T01:21:22;6.32;;;5.65;;
16760;SDS011;8498;52.516;13.790;2022-07-23T01:26:46;8.57;;;5.63;;
16760;SDS011;8498;52.516;13.790;2022-07-23T01:32:10;6.05;;;5.45;;
16760;SDS011;8498;52.516;13.790;2022-07-23T01:37:32;10.48;;;6.03;;
16760;SDS011;8498;52.516;13.790;2022-07-23T01:42:55;6.60;;;5.70;;
16760;SDS011;8498;52.516;13.790;2022-07-23T01:48:18;7.07;;;6.37;;
16760;SDS011;8498;52.516;13.790;2022-07-23T01:53:56;8.33;;;6.00;;
16760;SDS011;8498;52.516;13.790;2022-07-23T01:59:19;8.00;;;6.53;;
16760;SDS011;8498;52.516;13.790;2022-07-23T02:04:42;8.33;;;6.60;;
16760;SDS011;8498;52.516;13.790;2022-07-23T02:10:04;7.80;;;6.17;;
16760;SDS011;8498;52.516;13.790;2022-07-23T02:15:28;10.20;;;6.43;;
16760;SDS011;8498;52.516;13.790;2022-07-23T02:20:51;8.47;;;6.27;;
16760;SDS011;8498;52.516;13.790;2022-07-23T02:26:13;6.90;;;6.20;;
16760;SDS011;8498;52.516;13.790;2022-07-23T02:31:43;9.30;;;6.00;;
16760;SDS011;8498;52.516;13.790;2022-07-23T02:37:06;8.93;;;6.23;;
16760;SDS011;8498;52.516;13.790;2022-07-23T02:42:31;9.77;;;6.65;;
16760;SDS011;8498;52.516;13.790;2022-07-23T02:47:54;8.17;;;5.93;;
16760;SDS011;8498;52.516;13.790;2022-07-23T02:53:17;7.27;;;5.97;;
16760;SDS011;8498;52.516;13.790;2022-07-23T02:58:40;9.35;;;5.38;;
16760;SDS011;8498;52.516;13.790;2022-07-23T03:04:02;6.40;;;5.80;;
16760;SDS011;8498;52.516;13.790;2022-07-23T03:09:25;7.80;;;5.90;;
16760;SDS011;8498;52.516;13.790;2022-07-23T03:14:48;12.17;;;6.53;;
16760;SDS011;8498;52.516;13.790;2022-07-23T03:20:10;8.00;;;5.97;;
16760;SDS011;8498;52.516;13.790;2022-07-23T03:25:33;7.40;;;6.20;;
16760;SDS011;8498;52.516;13.790;2022-07-23T03:30:56;6.97;;;5.90;;
16760;SDS011;8498;52.516;13.790;2022-07-23T03:36:20;16.15;;;6.32;;
16760;SDS011;8498;52.516;13.790;2022-07-23T03:41:45;13.67;;;6.20;;
16760;SDS011;8498;52.516;13.790;2022-07-23T03:47:08;8.30;;;6.07;;
16760;SDS011;8498;52.516;13.790;2022-07-23T03:52:30;10.80;;;6.63;;
16760;SDS011;8498;52.516;13.790;2022-07-23T03:57:53;8.68;;;6.43;;
16760;SDS011;8498;52.516;13.790;2022-07-23T04:03:15;11.88;;;7.07;;
16760;SDS011;8498;52.516;13.790;2022-07-23T04:08:41;13.32;;;7.45;;
16760;SDS011;8498;52.516;13.790;2022-07-23T04:14:04;12.40;;;7.40;;
16760;SDS011;8498;52.516;13.790;2022-07-23T04:19:27;9.53;;;6.97;;
16760;SDS011;8498;52.516;13.790;2022-07-23T04:24:56;12.10;;;7.63;;
16760;SDS011;8498;52.516;13.790;2022-07-23T04:30:19;10.43;;;7.45;;
16760;SDS011;8498;52.516;13.790;2022-07-23T04:35:42;9.83;;;6.93;;
16760;SDS011;8498;52.516;13.790;2022-07-23T04:41:12;16.98;;;7.68;;
16760;SDS011;8498;52.516;13.790;2022-07-23T04:46:35;12.03;;;6.80;;
16760;SDS011;8498;52.516;13.790;2022-07-23T04:52:00;12.32;;;6.88;;
16760;SDS011;8498;52.516;13.790;2022-07-23T04:57:23;13.23;;;6.88;;
16760;SDS011;8498;52.516;13.790;2022-07-23T05:02:46;11.93;;;6.35;;
16760;SDS011;8498;52.516;13.790;2022-07-23T05:08:09;11.07;;;6.60;;
16760;SDS011;8498;52.516;13.790;2022-07-23T05:13:33;15.50;;;6.53;;
16760;SDS011;8498;52.516;13.790;2022-07-23T05:18:55;12.52;;;6.38;;
16760;SDS011;8498;52.516;13.790;2022-07-23T05:24:18;13.13;;;7.22;;
16760;SDS011;8498;52.516;13.790;2022-07-23T05:29:41;12.90;;;6.37;;
16760;SDS011;8498;52.516;13.790;2022-07-23T05:35:04;10.05;;;6.35;;
16760;SDS011;8498;52.516;13.790;2022-07-23T05:40:30;10.73;;;5.67;;
16760;SDS011;8498;52.516;13.790;2022-07-23T05:45:53;14.65;;;5.63;;
16760;SDS011;8498;52.516;13.790;2022-07-23T05:51:20;8.05;;;5.22;;
16760;SDS011;8498;52.516;13.790;2022-07-23T05:56:44;13.40;;;5.63;;
16760;SDS011;8498;52.516;13.790;2022-07-23T06:02:07;11.37;;;5.30;;
16760;SDS011;8498;52.516;13.790;2022-07-23T06:07:30;8.77;;;4.45;;
16760;SDS011;8498;52.516;13.790;2022-07-23T06:12:53;5.55;;;4.07;;
16760;SDS011;8498;52.516;13.790;2022-07-23T06:18:23;9.27;;;4.43;;
16760;SDS011;8498;52.516;13.790;2022-07-23T06:23:46;7.13;;;4.38;;
16760;SDS011;8498;52.516;13.790;2022-07-23T06:29:08;9.27;;;4.83;;
16760;SDS011;8498;52.516;13.790;2022-07-23T06:34:31;10.30;;;5.13;;
16760;SDS011;8498;52.516;13.790;2022-07-23T06:39:53;7.70;;;5.07;;
16760;SDS011;8498;52.516;13.790;2022-07-23T06:45:16;10.13;;;5.80;;
16760;SDS011;8498;52.516;13.790;2022-07-23T06:50:39;9.05;;;5.32;;
16760;SDS011;8498;52.516;13.790;2022-07-23T06:56:01;9.18;;;5.00;;
16760;SDS011;8498;52.516;13.790;2022-07-23T07:01:24;7.85;;;5.55;;
16760;SDS011;8498;52.516;13.790;2022-07-23T07:06:46;7.20;;;5.23;;
16760;SDS011;8498;52.516;13.790;2022-07-23T07:12:09;7.67;;;5.10;;
16760;SDS011;8498;52.516;13.790;2022-07-23T07:17:31;8.13;;;5.75;;
16760;SDS011;8498;52.516;13.790;2022-07-23T07:22:54;10.03;;;5.57;;
16760;SDS011;8498;52.516;13.790;2022-07-23T07:28:16;8.77;;;5.07;;
16760;SDS011;8498;52.516;13.790;2022-07-23T07:33:39;8.82;;;5.60;;
16760;SDS011;8498;52.516;13.790;2022-07-23T07:39:01;9.18;;;5.70;;
16760;SDS011;8498;52.516;13.790;2022-07-23T07:44:24;8.93;;;5.10;;
16760;SDS011;8498;52.516;13.790;2022-07-23T07:49:47;8.93;;;5.20;;
16760;SDS011;8498;52.516;13.790;2022-07-23T07:55:10;10.05;;;5.32;;
16760;SDS011;8498;52.516;13.790;2022-07-23T08:00:33;10.23;;;6.13;;
16760;SDS011;8498;52.516;13.790;2022-07-23T08:05:55;7.85;;;5.07;;
16760;SDS011;8498;52.516;13.790;2022-07-23T08:11:18;10.77;;;6.00;;
16760;SDS011;8498;52.516;13.790;2022-07-23T08:16:40;11.90;;;6.47;;
16760;SDS011;8498;52.516;13.790;2022-07-23T08:22:22;10.50;;;6.60;;
16760;SDS011;8498;52.516;13.790;2022-07-23T08:27:45;11.90;;;6.38;;
16760;SDS011;8498;52.516;13.790;2022-07-23T08:33:08;11.63;;;5.93;;
16760;SDS011;8498;52.516;13.790;2022-07-23T08:38:54;8.77;;;6.20;;
16760;SDS011;8498;52.516;13.790;2022-07-23T08:44:16;12.55;;;6.90;;
16760;SDS011;8498;52.516;13.790;2022-07-23T08:49:39;10.80;;;5.43;;
16760;SDS011;8498;52.516;13.790;2022-07-23T08:55:02;9.70;;;5.07;;
16760;SDS011;8498;52.516;13.790;2022-07-23T09:00:24;11.38;;;4.40;;
16760;SDS011;8498;52.516;13.790;2022-07-23T09:05:48;5.45;;;4.40;;
16760;SDS011;8498;52.516;13.790;2022-07-23T09:11:15;5.97;;;4.78;;
16760;SDS011;8498;52.516;13.790;2022-07-23T09:16:39;6.82;;;4.97;;
16760;SDS011;8498;52.516;13.790;2022-07-23T09:33:17;5.85;;;3.60;;
16760;SDS011;8498;52.516;13.790;2022-07-23T09:38:49;7.55;;;3.50;;
16760;SDS011;8498;52.516;13.790;2022-07-23T09:44:13;8.45;;;4.28;;
16760;SDS011;8498;52.516;13.790;2022-07-23T09:50:03;4.90;;;3.88;;
16760;SDS011;8498;52.516;13.790;2022-07-23T09:55:35;9.32;;;4.25;;
16760;SDS011;8498;52.516;13.790;2022-07-23T10:00:59;5.40;;;3.75;;
16760;SDS011;8498;52.516;13.790;2022-07-23T10:06:21;4.70;;;3.75;;
16760;SDS011;8498;52.516;13.790;2022-07-23T10:12:23;3.90;;;3.47;;
16760;SDS011;8498;52.516;13.790;2022-07-23T10:17:59;6.28;;;4.05;;
16760;SDS011;8498;52.516;13.790;2022-07-23T10:23:31;8.10;;;3.65;;
16760;SDS011;8498;52.516;13.790;2022-07-23T10:29:02;4.20;;;3.60;;
16760;SDS011;8498;52.516;13.790;2022-07-23T10:34:34;9.98;;;3.90;;
16760;SDS011;8498;52.516;13.790;2022-07-23T10:40:10;5.97;;;3.78;;
16760;SDS011;8498;52.516;13.790;2022-07-23T10:45:43;7.55;;;4.18;;
16760;SDS011;8498;52.516;13.790;2022-07-23T11:02:32;10.18;;;3.60;;
16760;SDS011;8498;52.516;13.790;2022-07-23T11:19:02;7.20;;;3.70;;
16760;SDS011;8498;52.516;13.790;2022-07-23T11:24:26;8.27;;;3.63;;
16760;SDS011;8498;52.516;13.790;2022-07-23T11:29:49;3.88;;;3.15;;
16760;SDS011;8498;52.516;13.790;2022-07-23T11:40:52;6.93;;;2.90;;
16760;SDS011;8498;52.516;13.790;2022-07-23T11:46:16;5.93;;;2.90;;
16760;SDS011;8498;52.516;13.790;2022-07-23T11:51:42;6.55;;;2.78;;
16760;SDS011;8498;52.516;13.790;2022-07-23T11:57:04;6.45;;;3.22;;
16760;SDS011;8498;52.516;13.790;2022-07-23T12:02:27;5.03;;;3.05;;
16760;SDS011;8498;52.516;13.790;2022-07-23T12:07:50;5.45;;;2.85;;
16760;SDS011;8498;52.516;13.790;2022-07-23T12:13:18;4.43;;;2.80;;
16760;SDS011;8498;52.516;13.790;2022-07-23T12:18:43;7.03;;;2.92;;
16760;SDS011;8498;52.516;13.790;2022-07-23T12:24:06;4.93;;;2.72;;
16760;SDS011;8498;52.516;13.790;2022-07-23T12:29:36;6.65;;;3.10;;
16760;SDS011;8498;52.516;13.790;2022-07-23T12:35:05;4.28;;;3.13;;
16760;SDS011;8498;52.516;13.790;2022-07-23T12:40:32;4.13;;;3.30;;
16760;SDS011;8498;52.516;13.790;2022-07-23T12:46:04;6.82;;;3.15;;
16760;SDS011;8498;52.516;13.790;2022-07-23T12:51:42;7.72;;;4.15;;
16760;SDS011;8498;52.516;13.790;2022-07-23T12:57:08;6.72;;;3.28;;
16760;SDS011;8498;52.516;13.790;2022-07-23T13:02:44;10.13;;;3.65;;
16760;SDS011;8498;52.516;13.790;2022-07-23T13:08:07;7.43;;;3.28;;
16760;SDS011;8498;52.516;13.790;2022-07-23T13:13:30;5.07;;;3.60;;
16760;SDS011;8498;52.516;13.790;2022-07-23T13:18:55;8.20;;;3.42;;
16760;SDS011;8498;52.516;13.790;2022-07-23T13:24:20;3.80;;;3.17;;
16760;SDS011;8498;52.516;13.790;2022-07-23T13:29:43;3.83;;;3.10;;
16760;SDS011;8498;52.516;13.790;2022-07-23T13:35:07;6.13;;;3.60;;
16760;SDS011;8498;52.516;13.790;2022-07-23T13:40:32;3.83;;;3.10;;
16760;SDS011;8498;52.516;13.790;2022-07-23T13:45:55;3.60;;;3.30;;
16760;SDS011;8498;52.516;13.790;2022-07-23T13:51:18;5.60;;;3.30;;
16760;SDS011;8498;52.516;13.790;2022-07-23T13:56:41;4.32;;;3.78;;
16760;SDS011;8498;52.516;13.790;2022-07-23T14:02:04;7.35;;;4.07;;
16760;SDS011;8498;52.516;13.790;2022-07-23T14:07:46;10.13;;;3.92;;
16760;SDS011;8498;52.516;13.790;2022-07-23T14:13:11;4.30;;;3.47;;
16760;SDS011;8498;52.516;13.790;2022-07-23T14:18:34;4.22;;;3.22;;
16760;SDS011;8498;52.516;13.790;2022-07-23T14:23:56;4.82;;;3.40;;
16760;SDS011;8498;52.516;13.790;2022-07-23T14:29:19;6.82;;;3.40;;
16760;SDS011;8498;52.516;13.790;2022-07-23T14:34:41;3.22;;;2.92;;
16760;SDS011;8498;52.516;13.790;2022-07-23T14:40:03;7.15;;;3.47;;
16760;SDS011;8498;52.516;13.790;2022-07-23T14:45:29;3.25;;;2.90;;
16760;SDS011;8498;52.516;13.790;2022-07-23T14:50:52;6.97;;;3.58;;
16760;SDS011;8498;52.516;13.790;2022-07-23T14:56:14;19.38;;;3.60;;
16760;SDS011;8498;52.516;13.790;2022-07-23T15:01:37;5.32;;;3.15;;
16760;SDS011;8498;52.516;13.790;2022-07-23T15:07:00;4.45;;;2.88;;
16760;SDS011;8498;52.516;13.790;2022-07-23T15:12:22;4.70;;;3.15;;
16760;SDS011;8498;52.516;13.790;2022-07-23T15:17:46;5.85;;;3.20;;
16760;SDS011;8498;52.516;13.790;2022-07-23T15:23:11;4.97;;;2.75;;
16760;SDS011;8498;52.516;13.790;2022-07-23T15:28:33;6.72;;;2.92;;
16760;SDS011;8498;52.516;13.790;2022-07-23T15:33:57;3.53;;;2.58;;
16760;SDS011;8498;52.516;13.790;2022-07-23T15:39:21;6.32;;;2.63;;
16760;SDS011;8498;52.516;13.790;2022-07-23T15:44:43;3.65;;;2.25;;
16760;SDS011;8498;52.516;13.790;2022-07-23T15:50:08;2.97;;;1.92;;
16760;SDS011;8498;52.516;13.790;2022-07-23T15:55:31;2.58;;;2.00;;
16760;SDS011;8498;52.516;13.790;2022-07-23T16:00:57;2.28;;;2.08;;
16760;SDS011;8498;52.516;13.790;2022-07-23T16:06:20;4.20;;;2.00;;
16760;SDS011;8498;52.516;13.790;2022-07-23T16:11:42;2.70;;;1.90;;
16760;SDS011;8498;52.516;13.790;2022-07-23T16:17:05;2.10;;;1.90;;
16760;SDS011;8498;52.516;13.790;2022-07-23T16:22:27;1.70;;;1.55;;
16760;SDS011;8498;52.516;13.790;2022-07-23T16:27:50;1.92;;;1.65;;
16760;SDS011;8498;52.516;13.790;2022-07-23T16:33:12;3.17;;;1.90;;
16760;SDS011;8498;52.516;13.790;2022-07-23T16:38:36;2.30;;;1.65;;
16760;SDS011;8498;52.516;13.790;2022-07-23T16:43:59;4.55;;;2.35;;
16760;SDS011;8498;52.516;13.790;2022-07-23T16:49:21;3.95;;;2.22;;
16760;SDS011;8498;52.516;13.790;2022-07-23T16:54:44;2.72;;;1.80;;
16760;SDS011;8498;52.516;13.790;2022-07-23T17:00:06;23.33;;;11.27;;
16760;SDS011;8498;52.516;13.790;2022-07-23T17:05:31;4.32;;;2.13;;
16760;SDS011;8498;52.516;13.790;2022-07-23T17:10:56;3.03;;;1.80;;
16760;SDS011;8498;52.516;13.790;2022-07-23T17:16:18;5.55;;;1.85;;
16760;SDS011;8498;52.516;13.790;2022-07-23T17:21:42;3.00;;;1.85;;
16760;SDS011;8498;52.516;13.790;2022-07-23T17:27:05;1.98;;;1.77;;
16760;SDS011;8498;52.516;13.790;2022-07-23T17:32:27;2.88;;;1.88;;
16760;SDS011;8498;52.516;13.790;2022-07-23T17:37:50;1.90;;;1.80;;
16760;SDS011;8498;52.516;13.790;2022-07-23T17:43:12;2.00;;;1.88;;
16760;SDS011;8498;52.516;13.790;2022-07-23T17:48:35;2.67;;;1.80;;
16760;SDS011;8498;52.516;13.790;2022-07-23T17:53:58;10.40;;;1.80;;
16760;SDS011;8498;52.516;13.790;2022-07-23T17:59:20;3.60;;;1.98;;
16760;SDS011;8498;52.516;13.790;2022-07-23T18:04:42;6.53;;;1.80;;
16760;SDS011;8498;52.516;13.790;2022-07-23T18:10:05;4.53;;;1.70;;
16760;SDS011;8498;52.516;13.790;2022-07-23T18:15:28;6.03;;;1.60;;
16760;SDS011;8498;52.516;13.790;2022-07-23T18:20:50;2.95;;;1.58;;
16760;SDS011;8498;52.516;13.790;2022-07-23T18:26:13;3.22;;;2.00;;
16760;SDS011;8498;52.516;13.790;2022-07-23T18:31:37;0.90;;;0.90;;
16760;SDS011;8498;52.516;13.790;2022-07-23T18:37:00;2.22;;;1.10;;
16760;SDS011;8498;52.516;13.790;2022-07-23T18:42:22;1.83;;;1.48;;
16760;SDS011;8498;52.516;13.790;2022-07-23T18:47:45;1.88;;;1.33;;
16760;SDS011;8498;52.516;13.790;2022-07-23T18:53:08;2.75;;;1.40;;
16760;SDS011;8498;52.516;13.790;2022-07-23T18:58:30;1.50;;;1.40;;
16760;SDS011;8498;52.516;13.790;2022-07-23T19:03:53;1.58;;;1.48;;
16760;SDS011;8498;52.516;13.790;2022-07-23T19:09:15;5.40;;;1.80;;
16760;SDS011;8498;52.516;13.790;2022-07-23T19:14:39;2.65;;;1.70;;
16760;SDS011;8498;52.516;13.790;2022-07-23T19:20:03;5.40;;;2.33;;
16760;SDS011;8498;52.516;13.790;2022-07-23T19:25:28;5.10;;;3.58;;
16760;SDS011;8498;52.516;13.790;2022-07-23T19:30:50;8.38;;;4.13;;
16760;SDS011;8498;52.516;13.790;2022-07-23T19:36:12;2.65;;;2.10;;
16760;SDS011;8498;52.516;13.790;2022-07-23T19:41:35;2.17;;;1.95;;
16760;SDS011;8498;52.516;13.790;2022-07-23T19:46:58;3.35;;;2.95;;
16760;SDS011;8498;52.516;13.790;2022-07-23T19:52:20;3.67;;;2.22;;
16760;SDS011;8498;52.516;13.790;2022-07-23T19:57:43;3.53;;;2.53;;
16760;SDS011;8498;52.516;13.790;2022-07-23T20:03:06;4.30;;;2.70;;
16760;SDS011;8498;52.516;13.790;2022-07-23T20:08:28;2.55;;;1.70;;
16760;SDS011;8498;52.516;13.790;2022-07-23T20:13:50;3.22;;;1.52;;
16760;SDS011;8498;52.516;13.790;2022-07-23T20:19:12;4.55;;;3.00;;
16760;SDS011;8498;52.516;13.790;2022-07-23T20:24:35;3.25;;;2.80;;
16760;SDS011;8498;52.516;13.790;2022-07-23T20:29:57;1.70;;;1.60;;
16760;SDS011;8498;52.516;13.790;2022-07-23T20:35:20;2.03;;;1.80;;
16760;SDS011;8498;52.516;13.790;2022-07-23T20:40:42;2.13;;;1.80;;
16760;SDS011;8498;52.516;13.790;2022-07-23T20:46:08;3.95;;;2.13;;
16760;SDS011;8498;52.516;13.790;2022-07-23T20:51:30;4.90;;;1.77;;
16760;SDS011;8498;52.516;13.790;2022-07-23T20:56:52;7.20;;;1.70;;
16760;SDS011;8498;52.516;13.790;2022-07-23T21:02:15;5.28;;;4.35;;
16760;SDS011;8498;52.516;13.790;2022-07-23T21:07:39;4.80;;;4.30;;
16760;SDS011;8498;52.516;13.790;2022-07-23T21:13:02;5.88;;;2.75;;
16760;SDS011;8498;52.516;13.790;2022-07-23T21:18:25;2.63;;;2.45;;
16760;SDS011;8498;52.516;13.790;2022-07-23T21:23:48;6.82;;;3.25;;
16760;SDS011;8498;52.516;13.790;2022-07-23T21:29:13;3.88;;;2.85;;
16760;SDS011;8498;52.516;13.790;2022-07-23T21:34:36;4.43;;;3.90;;
16760;SDS011;8498;52.516;13.790;2022-07-23T21:39:58;4.45;;;3.30;;
16760;SDS011;8498;52.516;13.790;2022-07-23T21:45:21;3.78;;;3.17;;
16760;SDS011;8498;52.516;13.790;2022-07-23T21:50:43;4.32;;;3.38;;
16760;SDS011;8498;52.516;13.790;2022-07-23T21:56:06;9.40;;;6.15;;
16760;SDS011;8498;52.516;13.790;2022-07-23T22:01:29;8.97;;;6.53;;
16760;SDS011;8498;52.516;13.790;2022-07-23T22:06:51;7.20;;;4.00;;
16760;SDS011;8498;52.516;13.790;2022-07-23T22:12:13;7.03;;;3.60;;
16760;SDS011;8498;52.516;13.790;2022-07-23T22:17:36;8.67;;;5.80;;
16760;SDS011;8498;52.516;13.790;2022-07-23T22:22:58;9.13;;;4.70;;
16760;SDS011;8498;52.516;13.790;2022-07-23T22:28:22;8.33;;;3.50;;
16760;SDS011;8498;52.516;13.790;2022-07-23T22:33:45;3.67;;;3.20;;
16760;SDS011;8498;52.516;13.790;2022-07-23T22:39:07;8.33;;;4.53;;
16760;SDS011;8498;52.516;13.790;2022-07-23T22:44:29;10.17;;;6.47;;
16760;SDS011;8498;52.516;13.790;2022-07-23T22:49:52;7.70;;;4.57;;
16760;SDS011;8498;52.516;13.790;2022-07-23T22:55:15;4.63;;;3.17;;
16760;SDS011;8498;52.516;13.790;2022-07-23T23:00:37;8.50;;;5.73;;
16760;SDS011;8498;52.516;13.790;2022-07-23T23:05:59;6.60;;;5.73;;
16760;SDS011;8498;52.516;13.790;2022-07-23T23:11:24;4.60;;;4.20;;
16760;SDS011;8498;52.516;13.790;2022-07-23T23:16:46;7.57;;;4.90;;
16760;SDS011;8498;52.516;13.790;2022-07-23T23:22:09;6.00;;;4.40;;
16760;SDS011;8498;52.516;13.790;2022-07-23T23:27:31;3.27;;;2.73;;
16760;SDS011;8498;52.516;13.790;2022-07-23T23:32:54;2.93;;;2.73;;
16760;SDS011;8498;52.516;13.790;2022-07-23T23:38:17;3.00;;;2.70;;
16760;SDS011;8498;52.516;13.790;2022-07-23T23:43:40;3.23;;;2.60;;
16760;SDS011;8498;52.516;13.790;2022-07-23T23:49:02;3.33;;;2.80;;
16760;SDS011;8498;52.516;13.790;2022-07-23T23:54:26;2.77;;;2.43;;
16760;SDS011;8498;52.516;13.790;2022-07-23T23:59:48;2.77;;;2.40;;
